Airfield :
LOGIN :

Register | Disclaimer

   EN    FR    IT 

 










Legend :    VFR   Marginal VFR   IFR   Intensive IFR   Very Intensive IFR
Visi :
Ceiling :
>= 8 km
>= 3000ft
5 to 8 km
1000 to 3000 ft
1500m to 5 km
500 to 1000 ft
800 to 1500m
200 to 500 ft
< 800m
< 200 ft
Symbols :   Thunderstorms  Fog  Heavy snow  Heavy precipitations  Wind > 20 kt
SIGMETs :     Misc.  Thunderstorms  Icing  Turbulence  Mountain Waves  Volcanic Ashes






- Airport Elevation : 86 ft


LERT - Rota Navy

CURRENT METAR :
  • 201243Z 28001KT 2000 +RA BKN004 BKN014 14/14 Q1014 NOSIG

EXPIRED METARs :
  • 201230Z VRB03KT 0800 R28/1700U R10/1500U +RA VV009 13/13 Q1014 NOSIG
  • 201216Z 18005KT 140V220 0800 R28/1800N R10/1700D +RA VV013 13/12 Q1015 NOSIG
  • 201200Z 20011KT 170V230 3000 RA SCT035 BKN045 BKN055 13/13 Q1016 NOSIG
  • 201130Z 20012G23KT 170V230 3000 RA FEW027 SCT040 BKN050 14/13 Q1016 NOSIG
  • 201100Z 20014KT 5000 -RA FEW043 SCT050 13/11 Q1017 NOSIG
  • 201046Z 20014KT 160V230 3000 -RA BKN050 13/11 Q1016 NOSIG
  • 201030Z 21017KT 2000 RA SCT005 SCT040 BKN050 14/13 Q1017 NOSIG
  • 201011Z 22015KT 1500 +RA SCT025 SCT030 OVC040 14/14 Q1017 NOSIG
  • 201000Z 20017KT 2000 +RA FEW025 SCT030 BKN037 14/13 Q1016 NOSIG

TAF TAF LERT
Valid from the 20 at 09:00 until the 21 at 09:00 UTC


200800Z 2009/2109 20014KT 9999 SCT030 TX16/2015Z TN14/2106Z
TEMPO 2009/2014 21017G28KT 4000 RA BKN014
BECMG 2014/2016 26010KT



MET'MAP, your aeronautical weather chart ! - Copyright ORBIFLY December 2007 - Disclaimer

ORBIFLY MET'MAP TEAM :

Programming & Development : Alexandra Zaïnal
Concept & original design : Baudouin d'Aumeries
Assistance for programming : Marc-Olivier Méhu
Technical & hardware support : Manuel Goepfert

Contact : metmap@orbifly.com




SOURCES & CREDITS :

   NOAA